Kezdőlap
METAR-TAF:

METAR-TAF

Repülőterek :

Chester, Connecticut, Amerikai Egyesült Államok

földrajzi szélesség: 41-23-02N, földrajzi hosszúság: 072-30-21W, magasság: 127 m

Jelenlegi meteorológiai megfigyelések

A jelentés 32 perccel ezelõtt készült, 08:35 UTC
Déli szél 7 kt
Hőmérséklet 17°C
Páratartalom 100%
Légköri nyomás 1008 hPa
Látótávolság: 1.2 km
Borult 100 lábon
enyhe esõ

METAR: KSNC 200835Z AUTO 17007KT 3/4SM -RA OVC001 17/17 A2978 RMK AO2

Idő: 05:07 (09:07 UTC)


TAF: hiányzik

Meteorológiai megfigyelések és előrejelzések több, mint 4000 repülőtéren (METAR és TAF jelentéseket).

A térképen piros és sárga pontok jelzik az elérhető meteorológiai állomásokat.

Mozgassa az egeret a pont fölött, hogy megjelenjen az állomás neve.

Azután kattintson az időjárási megfigyelések és előrejelzések megtekintéséhez.

A térkép megváltoztatása: kattintson a fekete keresztel jelölt zöld gombra ráközelítéshez, a vonallal jelölt zöld gombra távolításhoz, vagy a zöld nyilakra a szomszédos térképek eléréséhez.


METAR-TAF: